Time;durP1;ratioP1;P1;durP2;ratioP2;P2;SDS_P1;SDS_P2;PMS_P1;PMS_P2;Temp;Humidity;BMP_temperature;BMP_pressure;BME280_temperature;BME280_humidity;BME280_pressure;Samples;Min_cycle;Max_cycle;Signal;HPM_P1;HPM_P2
2021/05/27 05:30:36;;;;;;;2.10;1.50;;;18.50;57.30;;;;;;6177634;23;20145;-86
2021/05/27 05:33:17;;;;;;;1.77;1.30;;;18.50;57.30;;;;;;6173570;23;20159;-86
2021/05/27 05:35:47;;;;;;;2.78;1.40;;;18.50;56.90;;;;;;6125780;23;20167;-86
2021/05/27 05:41:41;;;;;;;2.13;1.48;;;18.50;57.10;;;;;;6177721;23;20189;-86
2021/05/27 05:44:18;;;;;;;2.78;1.50;;;18.50;57.40;;;;;;6127162;23;20147;-86
2021/05/27 05:46:54;;;;;;;1.58;1.38;;;18.50;57.00;;;;;;6127689;23;20139;-86
2021/05/27 05:49:28;;;;;;;1.48;1.27;;;18.50;57.20;;;;;;6151841;23;20143;-86
2021/05/27 05:58:41;;;;;;;1.55;1.40;;;18.50;57.20;;;;;;6177383;23;20142;-87
2021/05/27 06:05:29;;;;;;;1.73;1.50;;;18.40;57.20;;;;;;6176514;23;20191;-87
2021/05/27 06:11:21;;;;;;;2.10;1.40;;;18.50;57.10;;;;;;6176537;23;20138;-87
2021/05/27 06:13:59;;;;;;;1.52;1.40;;;18.50;56.60;;;;;;6124993;23;20218;-87
2021/05/27 06:16:40;;;;;;;1.60;1.50;;;18.50;57.00;;;;;;6125260;23;20591;-87
2021/05/27 06:19:38;;;;;;;2.33;1.40;;;18.50;57.30;;;;;;6126990;23;20154;-88
2021/05/27 06:29:28;;;;;;;1.35;1.15;;;18.50;57.10;;;;;;6180895;23;20130;-87
2021/05/27 06:32:17;;;;;;;1.75;1.13;;;18.40;56.90;;;;;;6127487;23;20147;-87
2021/05/27 06:34:48;;;;;;;1.63;1.48;;;18.50;57.10;;;;;;6126402;23;20230;-88
2021/05/27 06:37:16;;;;;;;1.95;1.33;;;18.40;57.10;;;;;;6131246;23;20146;-83
2021/05/27 07:24:44;;;;;;;1.50;1.20;;;18.50;56.60;;;;;;6212525;23;20195;-81
2021/05/27 08:01:09;;;;;;;1.25;1.15;;;18.50;56.20;;;;;;6173850;23;20243;-81
2021/05/27 08:07:31;;;;;;;1.77;1.23;;;18.50;56.70;;;;;;6243826;23;20153;-84
2021/05/27 08:13:46;;;;;;;1.95;1.05;;;18.50;56.80;;;;;;6241540;23;20172;-84
2021/05/27 08:16:39;;;;;;;1.40;1.30;;;18.50;56.40;;;;;;6166106;23;20142;-84
2021/05/27 08:19:31;;;;;;;2.63;1.23;;;18.60;56.10;;;;;;6211176;23;20146;-83
2021/05/27 08:22:02;;;;;;;2.70;1.15;;;18.60;56.60;;;;;;6211492;23;20138;-83
2021/05/27 08:24:37;;;;;;;1.52;1.20;;;18.60;56.30;;;;;;6215544;23;20142;-84
2021/05/27 08:27:41;;;;;;;2.15;1.23;;;18.60;56.40;;;;;;6189699;23;20146;-84
2021/05/27 08:30:25;;;;;;;1.92;1.30;;;18.60;56.80;;;;;;6243013;23;20130;-83
2021/05/27 08:38:10;;;;;;;2.28;1.23;;;18.60;56.30;;;;;;6194435;23;20205;-81
2021/05/27 08:40:46;;;;;;;3.72;1.20;;;18.60;55.80;;;;;;6133214;23;20178;-82
2021/05/27 08:43:14;;;;;;;1.25;1.00;;;18.60;55.90;;;;;;6130198;23;20142;-83
2021/05/27 08:45:43;;;;;;;1.40;1.20;;;18.60;56.40;;;;;;6135579;23;20150;-81
2021/05/27 08:48:17;;;;;;;1.30;1.20;;;18.60;55.80;;;;;;6157529;23;20139;-81
2021/05/27 08:50:53;;;;;;;1.30;1.08;;;18.60;56.20;;;;;;6158326;23;20149;-82
2021/05/27 08:53:33;;;;;;;1.02;0.95;;;18.70;56.20;;;;;;6160023;23;20202;-82
2021/05/27 08:56:14;;;;;;;1.27;0.98;;;18.60;56.10;;;;;;6158646;23;20163;-81
2021/05/27 08:58:51;;;;;;;2.15;1.20;;;18.60;55.90;;;;;;6184029;23;20154;-81
2021/05/27 09:01:27;;;;;;;1.10;1.00;;;18.60;56.50;;;;;;6158508;23;20149;-81
2021/05/27 09:04:02;;;;;;;2.28;1.40;;;18.60;56.30;;;;;;6158752;23;20150;-81
2021/05/27 09:06:37;;;;;;;1.75;1.10;;;18.60;56.10;;;;;;6158786;23;20143;-82
2021/05/27 09:09:20;;;;;;;1.17;1.00;;;18.60;55.80;;;;;;6158734;23;20214;-82
2021/05/27 09:11:56;;;;;;;2.20;1.50;;;18.60;55.70;;;;;;6182912;23;20124;-82
2021/05/27 09:14:49;;;;;;;1.15;1.05;;;18.60;56.20;;;;;;6157349;23;20170;-83
2021/05/27 09:17:16;;;;;;;1.40;1.13;;;18.60;56.20;;;;;;6183349;23;20157;-82
2021/05/27 09:20:13;;;;;;;1.35;1.25;;;18.60;56.10;;;;;;6157731;23;20158;-83
2021/05/27 09:23:18;;;;;;;1.15;1.00;;;18.60;56.50;;;;;;6094731;23;20160;-81
2021/05/27 09:26:04;;;;;;;1.20;1.10;;;18.60;56.50;;;;;;6094909;23;20176;-82
2021/05/27 09:28:35;;;;;;;1.42;0.82;;;18.60;56.30;;;;;;6116760;23;20141;-81
2021/05/27 09:31:18;;;;;;;1.00;0.90;;;18.60;56.20;;;;;;6094501;23;20490;-83
2021/05/27 09:34:18;;;;;;;1.40;1.02;;;18.60;56.20;;;;;;6116035;23;20153;-82
2021/05/27 09:36:44;;;;;;;1.38;1.10;;;18.60;56.40;;;;;;6086040;23;20288;-82
2021/05/27 09:39:50;;;;;;;1.70;1.00;;;18.60;56.50;;;;;;6039674;23;20162;-82
2021/05/27 09:42:53;;;;;;;1.13;1.00;;;18.60;56.50;;;;;;6043527;23;20145;-82
2021/05/27 09:45:26;;;;;;;1.42;1.20;;;18.60;56.10;;;;;;5976810;24;20166;-82
2021/05/27 09:48:25;;;;;;;1.30;1.20;;;18.60;56.60;;;;;;5953153;24;20222;-82
2021/05/27 09:51:20;;;;;;;1.70;1.05;;;18.60;56.70;;;;;;5999888;24;20158;-88
2021/05/27 09:54:16;;;;;;;1.20;1.10;;;18.60;56.00;;;;;;5961293;24;20136;-83
2021/05/27 09:57:05;;;;;;;1.27;1.17;;;18.60;56.60;;;;;;5955828;24;20169;-82
2021/05/27 10:00:20;;;;;;;1.50;1.15;;;18.60;56.30;;;;;;5969921;23;20568;-82
2021/05/27 10:03:25;;;;;;;1.50;1.10;;;18.60;56.50;;;;;;6000172;23;20189;-81
2021/05/27 10:06:12;;;;;;;1.90;1.20;;;18.60;56.60;;;;;;5999470;23;20162;-80
2021/05/27 10:09:10;;;;;;;1.33;1.00;;;18.60;56.40;;;;;;5951700;24;20215;-81
2021/05/27 10:12:00;;;;;;;0.98;0.93;;;18.60;56.60;;;;;;6017502;23;20139;-81
2021/05/27 10:14:46;;;;;;;1.55;1.10;;;18.60;56.60;;;;;;5995036;24;20215;-83
2021/05/27 10:17:32;;;;;;;1.15;1.00;;;18.60;57.30;;;;;;5992973;24;20155;-84
2021/05/27 10:20:22;;;;;;;1.52;1.00;;;18.60;56.40;;;;;;6111419;23;20150;-81
2021/05/27 10:23:08;;;;;;;1.88;1.25;;;18.60;56.60;;;;;;6119497;23;20204;-82
2021/05/27 10:25:56;;;;;;;1.27;1.00;;;18.60;56.20;;;;;;6120325;23;20148;-81
2021/05/27 10:28:24;;;;;;;1.33;1.08;;;18.60;56.30;;;;;;6119929;23;20222;-81
2021/05/27 10:30:52;;;;;;;2.78;1.20;;;18.60;56.60;;;;;;6144066;23;20127;-83
2021/05/27 10:33:22;;;;;;;1.25;0.98;;;18.60;56.50;;;;;;6093999;23;20144;-83
2021/05/27 10:36:00;;;;;;;1.23;1.13;;;18.60;56.50;;;;;;6091396;23;20232;-83
2021/05/27 10:38:41;;;;;;;1.48;1.00;;;18.60;56.60;;;;;;6138607;23;20197;-82
2021/05/27 10:41:10;;;;;;;1.83;1.10;;;18.60;56.70;;;;;;6171979;23;20158;-81
2021/05/27 10:44:05;;;;;;;2.30;1.30;;;18.60;57.30;;;;;;6196595;23;20606;-82
2021/05/27 10:46:51;;;;;;;1.60;1.10;;;18.60;56.50;;;;;;6170826;23;20151;-83
2021/05/27 10:49:38;;;;;;;2.03;1.00;;;18.60;56.00;;;;;;6050395;23;20188;-82
2021/05/27 10:52:30;;;;;;;1.20;1.10;;;18.60;56.00;;;;;;6077292;23;20252;-82
2021/05/27 10:54:58;;;;;;;1.00;0.95;;;18.70;56.30;;;;;;6051943;23;20268;-83
2021/05/27 10:57:39;;;;;;;1.55;1.02;;;18.60;56.10;;;;;;6055484;23;20216;-80
2021/05/27 11:00:28;;;;;;;1.05;0.98;;;18.60;56.20;;;;;;6077179;23;20158;-80
2021/05/27 11:03:44;;;;;;;1.50;0.90;;;18.60;55.90;;;;;;6022276;23;20162;-81
2021/05/27 11:06:28;;;;;;;1.13;1.00;;;18.60;56.40;;;;;;5915956;24;20164;-80
2021/05/27 11:11:36;;;;;;;1.45;1.35;;;18.60;56.60;;;;;;5939304;24;20227;-80
2021/05/27 11:14:23;;;;;;;2.63;1.33;;;18.60;56.00;;;;;;5939209;24;20197;-81
2021/05/27 11:17:20;;;;;;;1.30;1.17;;;18.60;56.00;;;;;;5915654;24;20153;-80
2021/05/27 11:19:53;;;;;;;1.35;1.20;;;18.60;56.40;;;;;;5934300;24;20248;-81
2021/05/27 11:22:31;;;;;;;1.92;1.13;;;18.60;56.60;;;;;;5914802;24;20737;-84
2021/05/27 11:25:14;;;;;;;1.50;1.00;;;18.60;56.30;;;;;;5939258;24;20145;-80
2021/05/27 11:27:48;;;;;;;1.48;1.20;;;18.60;56.30;;;;;;5938757;24;20153;-81
2021/05/27 11:30:52;;;;;;;0.93;0.90;;;18.60;56.50;;;;;;5935953;24;20235;-83
2021/05/27 11:33:28;;;;;;;0.90;0.88;;;18.60;56.60;;;;;;5887704;24;20156;-79
2021/05/27 11:35:59;;;;;;;1.00;0.90;;;18.60;56.20;;;;;;5910512;24;20196;-81
2021/05/27 11:38:30;;;;;;;1.25;0.90;;;18.60;56.10;;;;;;5909326;24;20263;-83
2021/05/27 11:41:00;;;;;;;1.13;1.02;;;18.60;56.50;;;;;;6008478;23;20181;-82
2021/05/27 11:43:33;;;;;;;3.20;0.93;;;18.70;57.10;;;;;;6129664;23;20465;-82
2021/05/27 11:46:04;;;;;;;1.00;0.90;;;18.60;56.20;;;;;;6111299;23;20154;-82
2021/05/27 11:48:34;;;;;;;0.82;0.82;;;18.60;56.40;;;;;;6135544;23;20580;-82
2021/05/27 11:51:03;;;;;;;1.30;1.05;;;18.60;56.20;;;;;;6134270;23;20140;-82
2021/05/27 11:53:47;;;;;;;1.40;1.00;;;18.60;56.40;;;;;;6157748;23;20132;-83
2021/05/27 11:56:55;;;;;;;1.00;0.90;;;18.60;56.40;;;;;;6156990;23;20224;-82
2021/05/27 11:59:26;;;;;;;0.90;0.70;;;18.60;56.40;;;;;;6139085;23;20207;-82
2021/05/27 12:01:57;;;;;;;1.13;1.02;;;18.60;56.40;;;;;;6133309;23;20136;-83
2021/05/27 12:04:23;;;;;;;1.20;1.05;;;18.60;56.20;;;;;;6138571;23;20211;-84
2021/05/27 12:06:59;;;;;;;1.15;0.90;;;18.60;56.20;;;;;;6132710;23;20166;-83
2021/05/27 12:09:26;;;;;;;2.47;0.98;;;18.70;55.80;;;;;;6134500;23;20571;-84
2021/05/27 12:11:51;;;;;;;3.35;1.08;;;18.70;55.90;;;;;;6134531;23;20629;-83
2021/05/27 12:14:18;;;;;;;1.95;1.20;;;18.70;55.80;;;;;;6134322;23;20246;-81
2021/05/27 12:16:44;;;;;;;1.73;1.00;;;18.70;56.60;;;;;;6132850;23;20591;-83
2021/05/27 12:19:18;;;;;;;1.83;1.00;;;18.70;56.10;;;;;;6131885;23;20132;-83
2021/05/27 12:21:55;;;;;;;1.25;1.10;;;18.80;56.00;;;;;;6159651;23;20135;-83
2021/05/27 12:24:29;;;;;;;1.08;0.90;;;18.70;55.80;;;;;;6156974;23;20155;-83
2021/05/27 12:26:56;;;;;;;0.88;0.75;;;18.80;55.80;;;;;;6133748;23;20135;-83
2021/05/27 12:29:23;;;;;;;0.80;0.80;;;18.80;56.10;;;;;;6133535;23;20155;-83
2021/05/27 12:31:50;;;;;;;1.63;1.10;;;18.80;56.60;;;;;;6134929;23;20274;-84
2021/05/27 12:34:19;;;;;;;1.98;1.00;;;18.70;56.40;;;;;;6137550;23;20183;-84
2021/05/27 12:36:59;;;;;;;2.60;0.98;;;18.70;56.20;;;;;;6136714;23;20210;-84
2021/05/27 12:39:30;;;;;;;1.00;0.90;;;18.70;56.40;;;;;;6144839;23;20155;-82
2021/05/27 12:41:56;;;;;;;1.63;1.00;;;18.70;56.30;;;;;;6144463;23;20154;-83
2021/05/27 12:44:42;;;;;;;1.13;1.02;;;18.80;55.80;;;;;;6144315;23;20145;-83
2021/05/27 12:47:30;;;;;;;0.85;0.85;;;18.70;56.20;;;;;;6170492;23;20146;-81
2021/05/27 12:49:56;;;;;;;1.30;1.00;;;18.80;55.90;;;;;;6147819;23;20138;-82
2021/05/27 12:52:39;;;;;;;2.25;1.08;;;18.80;55.90;;;;;;6145522;23;20150;-83
2021/05/27 12:55:08;;;;;;;0.93;0.77;;;18.80;56.10;;;;;;6169869;23;20178;-82
2021/05/27 12:57:55;;;;;;;1.08;0.95;;;18.80;55.30;;;;;;6144479;23;20147;-83
2021/05/27 13:00:31;;;;;;;1.20;1.10;;;18.90;56.20;;;;;;6168007;23;20142;-84
2021/05/27 13:03:05;;;;;;;1.05;0.88;;;18.90;55.70;;;;;;6119643;23;20213;-83
2021/05/27 13:05:30;;;;;;;2.42;0.70;;;18.90;55.80;;;;;;6121249;23;20143;-83
2021/05/27 13:08:00;;;;;;;1.13;1.00;;;18.80;55.60;;;;;;6165958;23;20131;-82
2021/05/27 13:10:33;;;;;;;1.70;0.85;;;18.90;56.10;;;;;;6168140;23;20135;-82
2021/05/27 13:12:59;;;;;;;1.00;0.85;;;18.90;56.30;;;;;;6170062;23;20138;-82
2021/05/27 13:15:27;;;;;;;0.80;0.75;;;18.80;56.20;;;;;;6167175;23;20167;-84
2021/05/27 13:18:04;;;;;;;1.30;0.90;;;18.80;55.90;;;;;;6116356;23;20221;-83
2021/05/27 13:20:30;;;;;;;1.15;0.82;;;18.90;56.20;;;;;;6190609;23;20135;-83
2021/05/27 13:22:55;;;;;;;2.35;1.10;;;18.90;55.70;;;;;;6113058;23;20641;-83
2021/05/27 13:25:29;;;;;;;1.52;0.90;;;18.90;56.20;;;;;;6188693;23;20139;-82
2021/05/27 13:27:57;;;;;;;1.83;1.10;;;18.90;55.90;;;;;;6141834;23;20153;-82
2021/05/27 13:30:34;;;;;;;1.10;0.95;;;18.90;55.70;;;;;;6117062;23;20150;-82
2021/05/27 13:33:08;;;;;;;1.60;0.85;;;18.90;56.10;;;;;;6139552;23;20138;-82
2021/05/27 13:35:34;;;;;;;1.75;0.98;;;18.90;55.70;;;;;;6165400;23;20170;-81
2021/05/27 13:38:02;;;;;;;2.60;1.00;;;18.90;55.80;;;;;;6114301;23;20194;-82
2021/05/27 13:40:29;;;;;;;2.33;0.90;;;18.90;56.40;;;;;;6137619;23;20151;-85
2021/05/27 13:42:56;;;;;;;1.42;1.13;;;18.90;55.90;;;;;;6141262;23;20137;-83
2021/05/27 13:45:23;;;;;;;1.30;0.80;;;18.90;55.80;;;;;;6163461;23;20127;-83
2021/05/27 13:47:49;;;;;;;1.75;1.05;;;19.00;55.70;;;;;;6138818;23;20205;-83
2021/05/27 13:50:16;;;;;;;2.97;0.90;;;19.00;56.20;;;;;;6162021;23;20186;-82
2021/05/27 13:52:44;;;;;;;1.60;0.90;;;19.00;56.40;;;;;;6163421;23;20133;-82
2021/05/27 13:55:12;;;;;;;2.72;0.98;;;18.90;55.80;;;;;;6163457;23;20211;-81
2021/05/27 13:57:38;;;;;;;2.45;0.70;;;19.00;55.80;;;;;;6136797;23;20131;-84
2021/05/27 14:00:08;;;;;;;1.63;0.90;;;19.00;55.50;;;;;;6135789;23;20167;-82
2021/05/27 14:02:34;;;;;;;1.23;0.90;;;19.00;55.80;;;;;;6168042;23;20139;-82
2021/05/27 14:05:03;;;;;;;1.25;0.82;;;19.00;55.70;;;;;;6143160;23;20184;-84
2021/05/27 14:07:29;;;;;;;2.90;0.98;;;19.00;55.70;;;;;;6166902;23;20559;-84
2021/05/27 14:09:57;;;;;;;1.50;0.77;;;19.00;55.70;;;;;;6140491;23;20189;-84
2021/05/27 14:12:23;;;;;;;1.45;0.90;;;19.00;56.00;;;;;;6114390;23;20526;-84
2021/05/27 14:14:52;;;;;;;1.35;1.00;;;19.00;56.10;;;;;;6114015;23;20191;-83
2021/05/27 14:17:18;;;;;;;2.63;0.90;;;19.00;56.10;;;;;;6136760;23;20586;-81
2021/05/27 14:19:44;;;;;;;1.30;0.77;;;19.00;56.30;;;;;;6160784;23;20210;-83
2021/05/27 14:22:09;;;;;;;3.22;1.10;;;19.00;56.20;;;;;;6136145;23;20146;-82
2021/05/27 14:24:35;;;;;;;1.10;1.00;;;19.00;56.40;;;;;;6137017;23;20245;-83
2021/05/27 14:27:02;;;;;;;2.15;0.77;;;19.00;56.50;;;;;;6138382;23;20132;-82
2021/05/27 14:29:28;;;;;;;0.98;0.80;;;18.90;56.10;;;;;;6161760;23;20134;-83
2021/05/27 14:31:54;;;;;;;2.25;0.90;;;19.00;55.90;;;;;;6137202;23;20327;-82
2021/05/27 14:34:20;;;;;;;1.48;0.90;;;19.00;56.10;;;;;;6160861;23;20522;-83
2021/05/27 14:36:46;;;;;;;1.80;0.80;;;19.00;56.10;;;;;;6113328;23;20162;-84
2021/05/27 14:39:12;;;;;;;1.80;0.95;;;19.00;56.00;;;;;;6113262;23;20205;-83
2021/05/27 14:41:38;;;;;;;1.10;1.00;;;19.00;56.50;;;;;;6136906;23;20210;-82
2021/05/27 14:44:04;;;;;;;2.15;1.02;;;19.00;56.40;;;;;;6137490;23;20214;-82
2021/05/27 14:46:30;;;;;;;0.90;0.82;;;19.00;56.50;;;;;;6110503;23;20143;-83
2021/05/27 14:48:56;;;;;;;3.50;1.08;;;19.00;56.20;;;;;;6160065;23;20134;-83
2021/05/27 14:51:21;;;;;;;2.72;0.98;;;19.00;56.00;;;;;;6159844;23;20158;-82
2021/05/27 14:53:47;;;;;;;1.35;1.00;;;19.00;56.50;;;;;;6159589;23;20169;-83
2021/05/27 14:56:14;;;;;;;1.65;0.90;;;19.00;56.40;;;;;;6136780;23;20177;-83
2021/05/27 14:58:40;;;;;;;1.92;0.90;;;19.00;56.50;;;;;;6136832;23;20131;-83
2021/05/27 15:01:07;;;;;;;3.42;1.30;;;19.00;56.20;;;;;;6135904;23;20143;-83
2021/05/27 15:03:37;;;;;;;1.15;0.80;;;19.00;56.50;;;;;;6159971;23;20154;-83
2021/05/27 15:06:06;;;;;;;0.80;0.73;;;19.00;56.10;;;;;;6162839;23;20162;-83
2021/05/27 15:08:36;;;;;;;1.52;0.73;;;19.00;55.90;;;;;;6162738;23;20571;-83
2021/05/27 15:11:05;;;;;;;3.58;1.00;;;19.00;56.40;;;;;;6187346;23;20206;-83
2021/05/27 15:13:32;;;;;;;1.17;0.73;;;19.00;56.30;;;;;;6161776;23;20616;-81
2021/05/27 15:15:59;;;;;;;2.10;0.90;;;19.00;56.50;;;;;;6163577;23;20170;-83
2021/05/27 15:18:32;;;;;;;4.75;1.00;;;19.00;55.90;;;;;;6140290;23;20162;-84
2021/05/27 15:21:07;;;;;;;3.72;1.00;;;19.10;56.80;;;;;;6166002;23;20623;-84
2021/05/27 15:23:34;;;;;;;5.10;0.93;;;19.10;56.40;;;;;;6145140;23;20139;-82
2021/05/27 15:26:02;;;;;;;4.30;1.05;;;19.10;56.80;;;;;;6167051;23;20165;-84
2021/05/27 15:28:28;;;;;;;4.07;1.02;;;19.10;56.50;;;;;;6141740;23;20463;-83
2021/05/27 15:30:55;;;;;;;4.70;1.10;;;19.10;56.60;;;;;;6167345;23;20135;-83
2021/05/27 15:33:25;;;;;;;2.60;0.75;;;19.10;56.30;;;;;;6141826;23;20146;-84
2021/05/27 15:35:51;;;;;;;5.78;1.17;;;19.10;56.30;;;;;;6141633;23;20502;-83
2021/05/27 15:38:18;;;;;;;1.95;1.00;;;19.10;56.20;;;;;;6164104;23;20202;-83
2021/05/27 15:40:50;;;;;;;3.17;1.00;;;19.10;56.50;;;;;;6164996;23;20230;-83
2021/05/27 15:43:17;;;;;;;1.33;0.80;;;19.10;56.70;;;;;;6165156;23;20625;-81
2021/05/27 15:45:44;;;;;;;4.05;1.23;;;19.10;56.70;;;;;;6165515;23;20567;-82
2021/05/27 15:48:10;;;;;;;1.92;1.20;;;19.10;56.50;;;;;;6140663;23;20420;-83
2021/05/27 15:50:39;;;;;;;3.75;0.98;;;19.10;56.50;;;;;;6140095;23;20150;-83
2021/05/27 15:53:14;;;;;;;2.97;1.30;;;19.10;56.60;;;;;;6165655;23;20237;-83
2021/05/27 15:55:48;;;;;;;2.70;0.88;;;19.10;57.10;;;;;;6192819;23;20182;-82
2021/05/27 15:58:14;;;;;;;2.08;1.08;;;19.10;56.80;;;;;;6169360;23;20148;-83
2021/05/27 16:00:44;;;;;;;1.58;0.95;;;19.10;56.60;;;;;;6165697;23;20131;-82
2021/05/27 16:03:11;;;;;;;2.50;0.93;;;19.10;56.60;;;;;;6141914;23;20618;-83
2021/05/27 16:05:37;;;;;;;2.05;1.00;;;19.10;56.40;;;;;;6140095;23;20230;-83
2021/05/27 16:08:07;;;;;;;3.67;1.02;;;19.20;56.30;;;;;;6141635;23;20150;-84
2021/05/27 16:10:35;;;;;;;1.95;0.93;;;19.20;56.40;;;;;;6116068;23;20147;-82
2021/05/27 16:13:06;;;;;;;2.75;0.85;;;19.20;56.50;;;;;;6116235;23;20158;-83
2021/05/27 16:15:32;;;;;;;4.53;0.90;;;19.20;57.10;;;;;;6164613;23;20186;-82
2021/05/27 16:17:58;;;;;;;2.25;1.00;;;19.20;56.50;;;;;;6139507;23;20135;-81
2021/05/27 16:20:24;;;;;;;5.13;1.10;;;19.20;56.80;;;;;;6162573;23;20205;-82
2021/05/27 16:22:51;;;;;;;1.42;0.90;;;19.20;56.90;;;;;;6161656;23;20553;-82
2021/05/27 16:25:18;;;;;;;3.72;1.00;;;19.20;56.60;;;;;;6186377;23;20145;-82
2021/05/27 16:27:45;;;;;;;5.60;1.00;;;19.20;56.70;;;;;;6162301;23;20135;-83
2021/05/27 16:30:13;;;;;;;2.58;1.00;;;19.20;56.40;;;;;;6137196;23;20624;-82
2021/05/27 16:32:40;;;;;;;5.72;0.98;;;19.20;56.80;;;;;;6162856;23;20135;-83
2021/05/27 16:35:36;;;;;;;4.10;0.73;;;19.20;56.60;;;;;;6190616;23;20524;-83
2021/05/27 16:40:37;;;;;;;2.65;1.00;;;19.20;57.00;;;;;;6170321;23;20146;-82
2021/05/27 16:43:03;;;;;;;2.60;0.93;;;19.20;57.10;;;;;;6140472;23;20510;-82
2021/05/27 16:45:29;;;;;;;7.03;1.00;;;19.20;57.30;;;;;;6113338;23;20171;-80
2021/05/27 16:47:55;;;;;;;2.88;0.75;;;19.20;56.60;;;;;;6162511;23;20158;-82
2021/05/27 16:50:25;;;;;;;1.70;1.00;;;19.20;57.00;;;;;;6113189;23;20169;-82
2021/05/27 16:52:51;;;;;;;2.75;1.10;;;19.20;57.40;;;;;;6138390;23;20474;-81
2021/05/27 16:55:18;;;;;;;1.83;1.00;;;19.20;57.40;;;;;;6137296;23;20223;-82
2021/05/27 16:57:46;;;;;;;6.63;1.13;;;19.20;56.90;;;;;;6188937;23;20242;-83
2021/05/27 17:00:14;;;;;;;5.03;1.05;;;19.20;57.10;;;;;;6188362;23;20123;-82
2021/05/27 17:02:41;;;;;;;2.38;1.00;;;19.20;57.80;;;;;;6162330;23;20131;-81
2021/05/27 17:05:10;;;;;;;5.30;0.90;;;19.20;57.20;;;;;;6188531;23;20135;-82
2021/05/27 17:07:36;;;;;;;4.22;1.00;;;19.20;57.10;;;;;;6137801;23;20219;-81
2021/05/27 17:10:04;;;;;;;4.03;1.20;;;19.20;56.90;;;;;;6137493;23;20170;-82
2021/05/27 17:12:31;;;;;;;2.90;1.10;;;19.20;57.40;;;;;;6136868;23;20143;-82
2021/05/27 17:14:57;;;;;;;3.13;0.90;;;19.20;57.60;;;;;;6188594;23;20563;-83
2021/05/27 17:17:24;;;;;;;5.53;1.17;;;19.20;56.40;;;;;;6163447;23;20189;-83
2021/05/27 17:19:59;;;;;;;2.17;1.00;;;19.20;56.70;;;;;;6140395;23;20139;-83
2021/05/27 17:22:26;;;;;;;2.40;0.90;;;19.20;57.00;;;;;;6190687;23;20158;-82
2021/05/27 17:24:52;;;;;;;2.03;0.80;;;19.20;56.80;;;;;;6163117;23;20142;-82
2021/05/27 17:27:18;;;;;;;4.75;1.08;;;19.20;56.70;;;;;;6136977;23;20139;-82
2021/05/27 17:29:45;;;;;;;3.50;0.88;;;19.20;56.50;;;;;;6188759;23;20134;-83
2021/05/27 17:32:11;;;;;;;1.83;1.15;;;19.20;56.70;;;;;;6136486;23;20150;-82
2021/05/27 17:34:38;;;;;;;3.83;0.93;;;19.20;56.60;;;;;;6149328;23;20607;-82
2021/05/27 17:37:03;;;;;;;2.53;1.05;;;19.20;56.80;;;;;;6136020;23;20139;-82
2021/05/27 17:39:30;;;;;;;5.35;0.90;;;19.20;56.80;;;;;;6187741;23;20218;-82
2021/05/27 17:42:03;;;;;;;1.17;0.90;;;19.20;56.40;;;;;;6188055;23;20130;-82
2021/05/27 17:44:30;;;;;;;3.00;1.17;;;19.20;56.00;;;;;;6163318;23;20131;-82
2021/05/27 17:46:57;;;;;;;2.92;1.10;;;19.10;57.70;;;;;;6161661;23;20127;-82
2021/05/27 17:49:23;;;;;;;3.53;0.90;;;19.20;56.60;;;;;;6161938;23;20131;-82
2021/05/27 17:51:50;;;;;;;4.72;0.98;;;19.20;56.40;;;;;;6188828;23;20163;-82
2021/05/27 17:54:17;;;;;;;9.38;1.20;;;19.20;56.20;;;;;;6161982;23;20127;-82
2021/05/27 17:56:43;;;;;;;3.80;1.10;;;19.20;56.60;;;;;;6161698;23;20181;-82
2021/05/27 17:59:11;;;;;;;2.53;0.90;;;19.10;56.40;;;;;;6162587;23;20181;-82
2021/05/27 18:01:38;;;;;;;5.78;1.00;;;19.10;55.90;;;;;;6162145;23;20162;-82
2021/05/27 18:04:04;;;;;;;1.67;0.60;;;19.20;56.00;;;;;;6162165;23;20147;-82
2021/05/27 18:06:31;;;;;;;1.08;0.70;;;19.10;56.40;;;;;;6188824;23;20574;-82
2021/05/27 18:08:59;;;;;;;1.40;0.90;;;19.10;56.30;;;;;;6188668;23;20629;-82
2021/05/27 18:11:25;;;;;;;2.20;0.80;;;19.10;56.40;;;;;;6188953;23;20131;-82
2021/05/27 18:13:52;;;;;;;1.77;1.10;;;19.10;56.10;;;;;;6163232;23;20147;-82
2021/05/27 18:16:26;;;;;;;3.65;0.95;;;19.10;56.50;;;;;;6162665;23;20198;-81
2021/05/27 18:18:53;;;;;;;2.15;1.00;;;19.10;56.00;;;;;;6188350;23;20205;-83
2021/05/27 18:21:19;;;;;;;2.78;1.05;;;19.10;56.50;;;;;;6162730;23;20130;-82
2021/05/27 18:23:46;;;;;;;5.13;1.00;;;19.10;56.00;;;;;;6163667;23;20147;-82
2021/05/27 18:26:13;;;;;;;2.67;0.98;;;19.10;56.30;;;;;;6162702;23;20209;-82
2021/05/27 18:28:39;;;;;;;3.08;1.00;;;19.10;56.40;;;;;;6162180;23;20137;-83
2021/05/27 18:31:14;;;;;;;1.50;0.90;;;19.10;56.20;;;;;;6188438;23;20137;-84
2021/05/27 18:33:41;;;;;;;1.88;0.70;;;19.10;56.10;;;;;;6164437;23;20185;-83
2021/05/27 18:36:08;;;;;;;4.85;1.40;;;19.10;56.40;;;;;;6188518;23;20237;-82
2021/05/27 18:38:34;;;;;;;2.88;0.75;;;19.10;56.10;;;;;;6157606;23;20203;-83
2021/05/27 18:41:09;;;;;;;2.88;0.82;;;19.10;56.00;;;;;;6162536;23;20139;-82
2021/05/27 18:43:36;;;;;;;4.55;0.88;;;19.10;56.00;;;;;;6112996;23;20210;-83
2021/05/27 18:46:02;;;;;;;1.52;0.73;;;19.10;56.20;;;;;;6137732;23;20139;-82
2021/05/27 18:48:37;;;;;;;1.52;0.80;;;19.10;56.80;;;;;;6137896;23;20136;-82
2021/05/27 18:51:03;;;;;;;2.05;1.02;;;19.10;56.00;;;;;;6137660;23;20217;-83
2021/05/27 18:53:29;;;;;;;1.52;0.88;;;19.10;56.30;;;;;;6139640;23;20135;-82
2021/05/27 18:55:55;;;;;;;5.05;1.15;;;19.10;56.20;;;;;;6137596;23;20567;-82
2021/05/27 18:58:20;;;;;;;2.00;0.70;;;19.10;55.90;;;;;;6138277;23;20223;-83
2021/05/27 19:00:49;;;;;;;1.17;0.80;;;19.10;55.70;;;;;;6111971;23;20139;-82
2021/05/27 19:03:17;;;;;;;1.92;0.85;;;19.10;56.10;;;;;;6132639;23;20203;-82
2021/05/27 19:05:52;;;;;;;1.13;0.80;;;19.10;55.90;;;;;;6109180;23;20152;-82
2021/05/27 19:08:18;;;;;;;3.00;1.05;;;19.10;55.60;;;;;;6084385;23;20654;-82
2021/05/27 19:10:45;;;;;;;1.33;0.90;;;19.10;56.30;;;;;;6085273;23;20148;-83
2021/05/27 19:13:12;;;;;;;3.25;1.35;;;19.10;56.00;;;;;;6084460;23;20203;-82
2021/05/27 19:15:39;;;;;;;3.13;1.00;;;19.10;57.30;;;;;;6133853;23;20203;-83
2021/05/27 19:18:06;;;;;;;5.30;1.40;;;19.10;57.30;;;;;;6109568;23;20156;-83
2021/05/27 19:20:33;;;;;;;3.03;1.10;;;19.10;57.10;;;;;;6084261;23;20593;-83
2021/05/27 19:23:01;;;;;;;1.63;0.98;;;19.00;58.00;;;;;;6084702;23;20158;-83
2021/05/27 19:25:28;;;;;;;4.13;0.90;;;19.00;57.80;;;;;;6109757;23;20132;-83
2021/05/27 19:27:55;;;;;;;2.30;0.73;;;19.00;57.30;;;;;;6108826;23;20145;-83
2021/05/27 19:30:21;;;;;;;1.33;0.93;;;19.00;58.10;;;;;;6084840;23;20147;-83
2021/05/27 19:32:47;;;;;;;2.88;1.20;;;19.00;57.80;;;;;;6084795;23;20150;-83
2021/05/27 19:35:17;;;;;;;3.63;0.82;;;19.00;57.50;;;;;;6136297;23;20178;-84
2021/05/27 19:37:45;;;;;;;1.77;0.80;;;19.00;58.50;;;;;;6125766;23;20193;-83
2021/05/27 19:40:12;;;;;;;2.08;1.00;;;18.90;58.20;;;;;;6143395;23;20150;-83
2021/05/27 19:42:38;;;;;;;2.28;0.82;;;18.90;58.10;;;;;;6118151;23;20154;-83
2021/05/27 19:45:05;;;;;;;3.33;0.80;;;18.90;58.70;;;;;;6141649;23;20131;-83
2021/05/27 19:47:31;;;;;;;2.00;0.82;;;18.90;60.60;;;;;;6116508;23;20147;-83
2021/05/27 19:50:06;;;;;;;1.83;1.10;;;18.90;60.20;;;;;;6142888;23;20145;-83
2021/05/27 19:52:33;;;;;;;1.83;1.02;;;18.90;59.50;;;;;;6167725;23;20192;-83
2021/05/27 19:55:00;;;;;;;2.92;0.77;;;18.80;59.30;;;;;;6167628;23;20304;-83
2021/05/27 19:57:29;;;;;;;3.72;0.82;;;18.90;59.70;;;;;;6119237;23;20146;-83
2021/05/27 20:00:00;;;;;;;2.10;0.90;;;18.80;60.00;;;;;;6145741;23;20130;-83
2021/05/27 20:02:27;;;;;;;1.40;0.90;;;18.80;60.70;;;;;;6168937;23;20131;-83
2021/05/27 20:04:54;;;;;;;0.95;0.75;;;18.80;59.70;;;;;;6143694;23;20244;-83
2021/05/27 20:07:22;;;;;;;3.53;1.00;;;18.80;60.90;;;;;;6144343;23;20150;-84
2021/05/27 20:09:52;;;;;;;2.45;1.00;;;18.80;59.60;;;;;;6169447;23;20210;-83
2021/05/27 20:12:19;;;;;;;1.65;0.93;;;18.80;59.80;;;;;;6144503;23;20147;-83
2021/05/27 20:14:54;;;;;;;1.15;0.93;;;18.80;60.80;;;;;;6144390;23;20189;-83
2021/05/27 20:17:28;;;;;;;2.33;0.95;;;18.80;59.30;;;;;;6144137;23;20146;-83
2021/05/27 20:19:55;;;;;;;1.15;0.75;;;18.80;60.50;;;;;;6168811;23;20130;-83
2021/05/27 20:22:25;;;;;;;1.38;0.80;;;18.80;60.60;;;;;;6168075;23;20127;-83
2021/05/27 20:24:52;;;;;;;1.88;0.88;;;18.80;59.90;;;;;;6168667;23;20474;-83
2021/05/27 20:27:26;;;;;;;1.88;0.80;;;18.80;59.20;;;;;;6143780;23;20138;-83
2021/05/27 20:29:54;;;;;;;1.67;1.08;;;18.80;60.10;;;;;;6168801;23;20135;-83
2021/05/27 20:32:21;;;;;;;2.42;0.70;;;18.80;60.00;;;;;;6143657;23;20582;-83
2021/05/27 20:34:47;;;;;;;3.20;1.05;;;18.80;59.80;;;;;;6167872;23;20163;-83
2021/05/27 20:37:13;;;;;;;1.63;0.90;;;18.80;60.30;;;;;;6142984;23;20205;-83
2021/05/27 20:39:40;;;;;;;2.42;0.85;;;18.80;59.80;;;;;;6194822;23;20174;-83
2021/05/27 20:42:07;;;;;;;1.85;1.00;;;18.80;59.70;;;;;;6143147;23;20165;-84
2021/05/27 20:44:35;;;;;;;3.67;1.13;;;18.80;60.90;;;;;;6144190;23;20209;-83
2021/05/27 20:47:04;;;;;;;2.58;0.90;;;18.80;59.90;;;;;;6143506;23;20233;-83